createdAt,value
2018-12-22T00:00:28.840Z,988.31
2018-12-22T00:01:28.835Z,988.42
2018-12-22T00:03:23.245Z,988.49
2018-12-22T00:04:23.194Z,988.50
2018-12-22T00:06:17.563Z,988.58
2018-12-22T00:07:17.557Z,988.62
2018-12-22T00:09:11.964Z,988.55
2018-12-22T00:10:11.912Z,988.67
2018-12-22T00:12:06.327Z,988.68
2018-12-22T00:13:06.275Z,988.60
2018-12-22T00:15:00.693Z,988.51
2018-12-22T00:16:00.681Z,988.85
2018-12-22T00:17:54.999Z,988.73
2018-12-22T00:18:54.997Z,988.79
2018-12-22T00:20:49.965Z,988.80
2018-12-22T00:21:49.336Z,988.62
2018-12-22T00:23:43.695Z,988.76
2018-12-22T00:24:43.691Z,988.68
2018-12-22T00:26:38.099Z,988.82
2018-12-22T00:27:38.854Z,988.77
2018-12-22T00:29:32.419Z,988.74
2018-12-22T00:30:32.411Z,988.86
2018-12-22T00:32:26.917Z,988.79
2018-12-22T00:33:26.762Z,988.80
2018-12-22T00:35:21.129Z,988.83
2018-12-22T00:36:21.123Z,988.82
2018-12-22T00:38:15.490Z,988.84
2018-12-22T00:39:15.481Z,988.85
2018-12-22T00:41:09.848Z,988.89
2018-12-22T00:42:09.838Z,988.95
2018-12-22T00:44:04.206Z,988.90
2018-12-22T00:45:04.198Z,988.90
2018-12-22T00:46:58.555Z,988.85
2018-12-22T00:47:58.547Z,988.89
2018-12-22T00:49:53.048Z,988.91
2018-12-22T00:50:52.896Z,988.94
2018-12-22T00:52:47.264Z,988.86
2018-12-22T00:53:47.257Z,988.89
2018-12-22T00:55:41.613Z,988.88
2018-12-22T00:56:41.612Z,988.88
2018-12-22T00:58:35.977Z,988.96
2018-12-22T00:59:35.977Z,988.89
2018-12-22T01:01:30.346Z,988.87
2018-12-22T01:02:30.326Z,988.93
2018-12-22T01:04:24.706Z,988.98
2018-12-22T01:05:24.697Z,988.99
2018-12-22T01:07:19.178Z,989.09
2018-12-22T01:08:19.046Z,989.02
2018-12-22T01:10:13.422Z,989.00
2018-12-22T01:11:13.415Z,989.10
2018-12-22T01:13:07.847Z,989.06
2018-12-22T01:14:07.767Z,989.06
2018-12-22T01:16:02.135Z,989.12
2018-12-22T01:17:02.126Z,989.15
2018-12-22T01:19:01.268Z,989.20
2018-12-22T01:20:01.258Z,989.02
2018-12-22T01:21:55.620Z,989.15
2018-12-22T01:22:55.621Z,989.12
2018-12-22T01:24:54.617Z,989.07
2018-12-22T01:25:54.404Z,989.18
2018-12-22T01:27:48.701Z,989.12
2018-12-22T01:28:48.698Z,989.18
2018-12-22T01:30:43.063Z,989.16
2018-12-22T01:31:43.058Z,989.19
2018-12-22T01:33:37.422Z,989.12
2018-12-22T01:34:37.414Z,989.11
2018-12-22T01:36:31.817Z,989.18
2018-12-22T01:37:31.774Z,989.20
2018-12-22T01:39:26.149Z,989.20
2018-12-22T01:40:26.133Z,989.23
2018-12-22T01:42:20.728Z,989.25
2018-12-22T01:43:20.485Z,989.29
2018-12-22T01:45:14.849Z,989.34
2018-12-22T01:46:14.842Z,989.39
2018-12-22T01:48:09.209Z,989.40
2018-12-22T01:49:09.203Z,989.37
2018-12-22T01:51:03.569Z,989.44
2018-12-22T01:52:03.560Z,989.47
2018-12-22T01:53:57.929Z,989.42
2018-12-22T01:54:57.920Z,989.40
2018-12-22T01:56:52.275Z,989.40
2018-12-22T01:57:52.267Z,989.38
2018-12-22T01:59:46.768Z,989.50
2018-12-22T02:00:46.627Z,989.55
2018-12-22T02:02:40.989Z,989.47
2018-12-22T02:03:40.974Z,989.46
2018-12-22T02:05:35.341Z,989.57
2018-12-22T02:06:35.436Z,989.54
2018-12-22T02:08:29.703Z,989.52
2018-12-22T02:09:29.697Z,989.53
2018-12-22T02:11:24.053Z,989.66
2018-12-22T02:12:24.045Z,989.62
2018-12-22T02:14:18.411Z,989.62
2018-12-22T02:15:18.403Z,989.73
2018-12-22T02:17:12.905Z,989.73
2018-12-22T02:18:12.763Z,989.69
2018-12-22T02:20:07.121Z,989.75
2018-12-22T02:21:07.112Z,989.73
2018-12-22T02:23:01.480Z,989.75
2018-12-22T02:24:01.471Z,989.71
2018-12-22T02:25:55.838Z,989.63
2018-12-22T02:26:55.833Z,989.71
2018-12-22T02:28:56.603Z,989.66
2018-12-22T02:29:50.192Z,989.66
2018-12-22T02:31:44.560Z,989.62
2018-12-22T02:32:44.562Z,989.67
2018-12-22T02:34:38.973Z,989.68
2018-12-22T02:35:38.919Z,989.59
2018-12-22T02:37:33.267Z,989.57
2018-12-22T02:38:33.259Z,989.58
2018-12-22T02:40:27.666Z,989.55
2018-12-22T02:41:27.628Z,989.61
2018-12-22T02:43:22.059Z,989.64
2018-12-22T02:44:21.987Z,989.55
2018-12-22T02:46:16.475Z,989.62
2018-12-22T02:47:16.353Z,989.66
2018-12-22T02:49:10.706Z,989.63
2018-12-22T02:50:10.695Z,989.62
2018-12-22T02:52:05.138Z,989.59
2018-12-22T02:53:05.043Z,989.58
2018-12-22T02:54:59.414Z,989.59
2018-12-22T02:55:59.431Z,989.55
2018-12-22T02:57:53.770Z,989.60
2018-12-22T02:58:53.753Z,989.65
2018-12-22T03:00:48.119Z,989.59
2018-12-22T03:01:48.113Z,989.65
2018-12-22T03:03:42.519Z,989.62
2018-12-22T03:04:42.806Z,989.58
2018-12-22T03:06:36.838Z,989.56
2018-12-22T03:07:36.837Z,989.57
2018-12-22T03:09:31.306Z,989.60
2018-12-22T03:10:31.191Z,989.57
2018-12-22T03:12:25.559Z,989.63
2018-12-22T03:13:25.551Z,989.60
2018-12-22T03:15:24.735Z,989.61
2018-12-22T03:16:24.748Z,989.61
2018-12-22T03:18:19.097Z,989.65
2018-12-22T03:19:19.090Z,989.57
2018-12-22T03:21:13.453Z,989.56
2018-12-22T03:22:13.461Z,989.55
2018-12-22T03:24:07.818Z,989.55
2018-12-22T03:25:07.810Z,989.54
2018-12-22T03:27:02.233Z,989.52
2018-12-22T03:28:02.168Z,989.56
2018-12-22T03:29:56.536Z,989.58
2018-12-22T03:30:56.530Z,989.47
2018-12-22T03:32:51.019Z,989.40
2018-12-22T03:33:50.897Z,989.39
2018-12-22T03:35:45.263Z,989.42
2018-12-22T03:36:45.256Z,989.46
2018-12-22T03:38:39.705Z,989.40
2018-12-22T03:39:39.631Z,989.32
2018-12-22T03:41:33.997Z,989.50
2018-12-22T03:42:33.990Z,989.45
2018-12-22T03:44:28.360Z,989.44
2018-12-22T03:45:28.353Z,989.48
2018-12-22T03:47:22.719Z,989.47
2018-12-22T03:48:22.713Z,989.42
2018-12-22T03:50:17.120Z,989.40
2018-12-22T03:51:17.072Z,989.39
2018-12-22T03:53:11.437Z,989.36
2018-12-22T03:54:11.431Z,989.41
2018-12-22T03:56:05.902Z,989.39
2018-12-22T03:57:05.787Z,989.38
2018-12-22T03:59:00.157Z,989.43
2018-12-22T04:00:00.150Z,989.42
2018-12-22T04:01:54.518Z,989.48
2018-12-22T04:02:54.508Z,989.48
2018-12-22T04:04:48.879Z,989.53
2018-12-22T04:05:48.895Z,989.51
2018-12-22T04:07:43.237Z,989.47
2018-12-22T04:08:43.236Z,989.52
2018-12-22T04:10:37.604Z,989.55
2018-12-22T04:11:37.597Z,989.51
2018-12-22T04:13:31.995Z,989.53
2018-12-22T04:14:31.957Z,989.52
2018-12-22T04:16:26.322Z,989.63
2018-12-22T04:17:26.334Z,989.64
2018-12-22T04:19:20.818Z,989.58
2018-12-22T04:20:20.664Z,989.63
2018-12-22T04:22:15.036Z,989.65
2018-12-22T04:23:15.038Z,989.60
2018-12-22T04:25:09.392Z,989.71
2018-12-22T04:26:09.389Z,989.72
2018-12-22T04:28:03.751Z,989.71
2018-12-22T04:29:03.735Z,989.74
2018-12-22T04:30:58.104Z,989.71
2018-12-22T04:31:58.099Z,989.69
2018-12-22T04:33:52.466Z,989.65
2018-12-22T04:34:52.456Z,989.67
2018-12-22T04:36:46.928Z,989.63
2018-12-22T04:37:46.817Z,989.63
2018-12-22T04:39:41.173Z,989.63
2018-12-22T04:40:41.164Z,989.57
2018-12-22T04:42:35.528Z,989.63
2018-12-22T04:43:35.524Z,989.61
2018-12-22T04:45:29.887Z,989.59
2018-12-22T04:46:29.881Z,989.59
2018-12-22T04:48:24.254Z,989.59
2018-12-22T04:49:24.243Z,989.58
2018-12-22T04:51:18.607Z,989.55
2018-12-22T04:52:18.604Z,989.52
2018-12-22T04:54:13.008Z,989.58
2018-12-22T04:55:12.955Z,989.47
2018-12-22T04:57:07.339Z,989.55
2018-12-22T04:58:07.319Z,989.51
2018-12-22T05:00:01.808Z,989.51
2018-12-22T05:01:01.675Z,989.50
2018-12-22T05:02:56.053Z,989.52
2018-12-22T05:03:56.044Z,989.51
2018-12-22T05:05:50.440Z,989.48
2018-12-22T05:06:50.402Z,989.45
2018-12-22T05:08:44.763Z,989.48
2018-12-22T05:09:44.751Z,989.51
2018-12-22T05:11:39.188Z,989.47
2018-12-22T05:12:39.107Z,989.47
2018-12-22T05:13:39.105Z,989.49
2018-12-22T05:14:39.099Z,989.54
2018-12-22T05:15:39.097Z,989.41
2018-12-22T05:16:39.090Z,989.50
2018-12-22T05:17:39.086Z,989.53
2018-12-22T05:18:39.079Z,989.53
2018-12-22T05:19:39.077Z,989.50
2018-12-22T05:20:39.068Z,989.50
2018-12-22T05:21:39.067Z,989.51
2018-12-22T05:22:39.061Z,989.56
2018-12-22T05:23:39.059Z,989.54
2018-12-22T05:24:39.052Z,989.56
2018-12-22T05:25:39.047Z,989.55
2018-12-22T05:26:39.045Z,989.53
2018-12-22T05:27:39.038Z,989.55
2018-12-22T05:28:39.032Z,989.55
2018-12-22T05:29:39.028Z,989.57
2018-12-22T05:30:39.024Z,989.55
2018-12-22T05:31:39.016Z,989.57
2018-12-22T05:32:39.012Z,989.59
2018-12-22T05:33:39.016Z,989.58
2018-12-22T05:34:39.009Z,989.61
2018-12-22T05:35:38.998Z,989.62
2018-12-22T05:36:38.995Z,989.62
2018-12-22T05:37:38.991Z,989.62
2018-12-22T05:38:38.986Z,989.59
2018-12-22T05:39:38.980Z,989.63
2018-12-22T05:40:38.976Z,989.59
2018-12-22T05:41:38.970Z,989.57
2018-12-22T05:42:38.964Z,989.60
2018-12-22T05:43:38.965Z,989.53
2018-12-22T05:44:38.956Z,989.53
2018-12-22T05:45:38.951Z,989.54
2018-12-22T05:46:38.946Z,989.50
2018-12-22T05:47:38.942Z,989.51
2018-12-22T05:48:38.937Z,989.53
2018-12-22T05:49:38.933Z,989.53
2018-12-22T05:50:38.928Z,989.57
2018-12-22T05:51:38.923Z,989.57
2018-12-22T05:52:38.920Z,989.56
2018-12-22T05:53:38.914Z,989.59
2018-12-22T05:54:38.907Z,989.55
2018-12-22T05:55:38.911Z,989.58
2018-12-22T05:56:38.948Z,989.61
2018-12-22T05:57:38.894Z,989.58
2018-12-22T05:58:38.893Z,989.60
2018-12-22T05:59:38.885Z,989.57
2018-12-22T06:00:38.881Z,989.58
2018-12-22T06:01:38.876Z,989.60
2018-12-22T06:02:38.868Z,989.60
2018-12-22T06:03:38.865Z,989.62
2018-12-22T06:04:38.862Z,989.60
2018-12-22T06:05:38.869Z,989.62
2018-12-22T06:06:38.852Z,989.62
2018-12-22T06:07:38.848Z,989.61
2018-12-22T06:08:38.842Z,989.58
2018-12-22T06:09:38.881Z,989.59
2018-12-22T06:10:38.833Z,989.53
2018-12-22T06:11:38.828Z,989.53
2018-12-22T06:12:38.825Z,989.53
2018-12-22T06:13:38.819Z,989.50
2018-12-22T06:14:38.813Z,989.48
2018-12-22T06:15:38.811Z,989.49
2018-12-22T06:16:38.805Z,989.47
2018-12-22T06:17:38.801Z,989.50
2018-12-22T06:18:38.795Z,989.48
2018-12-22T06:19:38.795Z,989.48
2018-12-22T06:20:38.788Z,989.46
2018-12-22T06:21:38.784Z,989.48
2018-12-22T06:22:38.789Z,989.49
2018-12-22T06:23:38.771Z,989.48
2018-12-22T06:24:38.773Z,989.53
2018-12-22T06:25:38.764Z,989.53
2018-12-22T06:26:38.754Z,989.52
2018-12-22T06:27:38.755Z,989.54
2018-12-22T06:28:38.751Z,989.57
2018-12-22T06:29:38.742Z,989.56
2018-12-22T06:30:38.740Z,989.53
2018-12-22T06:31:38.737Z,989.50
2018-12-22T06:32:38.731Z,989.48
2018-12-22T06:33:38.732Z,989.53
2018-12-22T06:34:38.722Z,989.48
2018-12-22T06:35:38.762Z,989.47
2018-12-22T06:36:38.711Z,989.47
2018-12-22T06:37:38.713Z,989.52
2018-12-22T06:38:40.406Z,989.49
2018-12-22T06:39:38.700Z,989.49
2018-12-22T06:40:38.695Z,989.46
2018-12-22T06:41:38.693Z,989.48
2018-12-22T06:42:38.684Z,989.52
2018-12-22T06:43:38.681Z,989.43
2018-12-22T06:44:38.676Z,989.52
2018-12-22T06:45:38.672Z,989.44
2018-12-22T06:46:38.669Z,989.52
2018-12-22T06:47:38.658Z,989.48
2018-12-22T06:48:38.657Z,989.54
2018-12-22T06:49:38.653Z,989.47
2018-12-22T06:50:38.647Z,989.45
2018-12-22T06:51:38.643Z,989.54
2018-12-22T06:52:38.640Z,989.51
2018-12-22T06:53:38.635Z,989.42
2018-12-22T06:54:38.632Z,989.44
2018-12-22T06:55:38.627Z,989.51
2018-12-22T06:56:38.621Z,989.46
2018-12-22T06:57:38.617Z,989.53
2018-12-22T06:58:38.612Z,989.48
2018-12-22T06:59:38.624Z,989.41
2018-12-22T07:00:38.602Z,989.43
2018-12-22T07:01:38.598Z,989.48
2018-12-22T07:02:38.592Z,989.50
2018-12-22T07:03:38.588Z,989.53
2018-12-22T07:04:38.588Z,989.55
2018-12-22T07:05:38.576Z,989.60
2018-12-22T07:06:38.574Z,989.59
2018-12-22T07:07:38.572Z,989.51
2018-12-22T07:08:38.594Z,989.53
2018-12-22T07:09:38.563Z,989.58
2018-12-22T07:10:38.556Z,989.49
2018-12-22T07:11:38.552Z,989.50
2018-12-22T07:12:38.547Z,989.49
2018-12-22T07:13:38.545Z,989.50
2018-12-22T07:14:38.538Z,989.48
2018-12-22T07:15:38.533Z,989.57
2018-12-22T07:16:38.530Z,989.51
2018-12-22T07:17:38.530Z,989.57
2018-12-22T07:18:38.520Z,989.57
2018-12-22T07:19:38.514Z,989.59
2018-12-22T07:20:38.509Z,989.61
2018-12-22T07:21:38.506Z,989.55
2018-12-22T07:22:38.504Z,989.54
2018-12-22T07:23:38.496Z,989.56
2018-12-22T07:24:38.491Z,989.62
2018-12-22T07:25:38.486Z,989.56
2018-12-22T07:26:38.483Z,989.58
2018-12-22T07:27:38.513Z,989.52
2018-12-22T07:28:38.477Z,989.53
2018-12-22T07:29:38.472Z,989.53
2018-12-22T07:30:38.465Z,989.63
2018-12-22T07:31:38.460Z,989.60
2018-12-22T07:32:38.465Z,989.53
2018-12-22T07:33:38.453Z,989.59
2018-12-22T07:34:38.446Z,989.61
2018-12-22T07:35:38.440Z,989.58
2018-12-22T07:36:38.437Z,989.65
2018-12-22T07:37:38.433Z,989.66
2018-12-22T07:38:38.429Z,989.61
2018-12-22T07:39:38.427Z,989.64
2018-12-22T07:40:38.422Z,989.53
2018-12-22T07:41:38.415Z,989.58
2018-12-22T07:42:39.422Z,989.68
2018-12-22T07:43:38.405Z,989.71
2018-12-22T07:44:38.400Z,989.71
2018-12-22T07:45:38.396Z,989.69
2018-12-22T07:46:38.393Z,989.67
2018-12-22T07:47:38.389Z,989.63
2018-12-22T07:48:38.382Z,989.69
2018-12-22T07:49:38.378Z,989.74
2018-12-22T07:50:38.371Z,989.60
2018-12-22T07:51:38.367Z,989.65
2018-12-22T07:52:38.363Z,989.51
2018-12-22T07:53:38.369Z,989.64
2018-12-22T07:54:38.353Z,989.60
2018-12-22T07:55:38.349Z,989.65
2018-12-22T07:56:38.345Z,989.62
2018-12-22T07:57:38.339Z,989.54
2018-12-22T07:58:38.336Z,989.59
2018-12-22T07:59:38.331Z,989.57
2018-12-22T08:00:38.325Z,989.60
2018-12-22T08:01:38.322Z,989.68
2018-12-22T08:02:38.315Z,989.78
2018-12-22T08:03:38.313Z,989.69
2018-12-22T08:04:38.307Z,989.61
2018-12-22T08:05:38.972Z,989.69
2018-12-22T08:06:38.296Z,989.67
2018-12-22T08:07:38.293Z,989.71
2018-12-22T08:08:38.290Z,989.74
2018-12-22T08:09:38.288Z,989.57
2018-12-22T08:10:38.281Z,989.67
2018-12-22T08:11:38.325Z,989.67
2018-12-22T08:12:38.270Z,989.62
2018-12-22T08:13:38.264Z,989.67
2018-12-22T08:14:38.259Z,989.66
2018-12-22T08:15:38.254Z,989.77
2018-12-22T08:16:38.265Z,989.69
2018-12-22T08:17:38.247Z,989.73
2018-12-22T08:18:38.244Z,989.83
2018-12-22T08:19:38.236Z,989.86
2018-12-22T08:20:38.236Z,989.86
2018-12-22T08:21:38.230Z,989.83
2018-12-22T08:22:38.224Z,989.79
2018-12-22T08:23:38.220Z,989.88
2018-12-22T08:24:38.216Z,989.92
2018-12-22T08:25:38.211Z,989.96
2018-12-22T08:26:38.201Z,989.86
2018-12-22T08:27:38.194Z,990.04
2018-12-22T08:28:38.194Z,989.92
2018-12-22T08:29:38.190Z,989.97
2018-12-22T08:30:43.529Z,989.92
2018-12-22T08:31:38.177Z,990.07
2018-12-22T08:32:38.181Z,990.06
2018-12-22T08:33:38.174Z,989.99
2018-12-22T08:34:38.165Z,990.01
2018-12-22T08:35:38.184Z,989.83
2018-12-22T08:36:38.163Z,990.00
2018-12-22T08:37:38.166Z,989.98
2018-12-22T08:38:38.169Z,989.94
2018-12-22T08:39:38.148Z,990.01
2018-12-22T08:40:38.138Z,990.03
2018-12-22T08:41:38.137Z,990.05
2018-12-22T08:42:38.129Z,990.11
2018-12-22T08:43:38.148Z,990.09
2018-12-22T08:44:38.120Z,990.09
2018-12-22T08:45:38.145Z,990.09
2018-12-22T08:46:38.113Z,990.28
2018-12-22T08:47:38.109Z,990.24
2018-12-22T08:48:38.105Z,990.29
2018-12-22T08:49:38.097Z,990.28
2018-12-22T08:50:38.091Z,990.33
2018-12-22T08:51:38.085Z,990.34
2018-12-22T08:52:38.086Z,990.37
2018-12-22T08:53:38.079Z,990.40
2018-12-22T08:54:38.076Z,990.37
2018-12-22T08:55:38.074Z,990.39
2018-12-22T08:56:38.067Z,990.35
2018-12-22T08:57:38.063Z,990.44
2018-12-22T08:58:38.227Z,990.43
2018-12-22T08:59:38.052Z,990.45
2018-12-22T09:00:38.051Z,990.48
2018-12-22T09:01:38.043Z,990.36
2018-12-22T09:02:38.040Z,990.41
2018-12-22T09:03:38.035Z,990.48
2018-12-22T09:04:38.032Z,990.42
2018-12-22T09:05:38.028Z,990.47
2018-12-22T09:06:38.023Z,990.53
2018-12-22T09:07:38.024Z,990.47
2018-12-22T09:08:38.015Z,990.53
2018-12-22T09:09:38.013Z,990.49
2018-12-22T09:10:38.003Z,990.54
2018-12-22T09:11:38.001Z,990.51
2018-12-22T09:12:37.997Z,990.53
2018-12-22T09:13:37.994Z,990.50
2018-12-22T09:14:37.986Z,990.60
2018-12-22T09:15:37.984Z,990.62
2018-12-22T09:16:37.978Z,990.56
2018-12-22T09:17:37.976Z,990.54
2018-12-22T09:18:37.971Z,990.57
2018-12-22T09:19:37.974Z,990.54
2018-12-22T09:20:37.961Z,990.58
2018-12-22T09:21:37.958Z,990.55
2018-12-22T09:22:37.950Z,990.59
2018-12-22T09:23:37.947Z,990.50
2018-12-22T09:24:37.944Z,990.55
2018-12-22T09:25:37.938Z,990.56
2018-12-22T09:26:37.933Z,990.67
2018-12-22T09:27:37.930Z,990.67
2018-12-22T09:28:37.927Z,990.71
2018-12-22T09:29:37.928Z,990.62
2018-12-22T09:30:37.917Z,990.75
2018-12-22T09:31:37.912Z,990.75
2018-12-22T09:32:37.908Z,990.73
2018-12-22T09:33:37.920Z,990.92
2018-12-22T09:34:38.048Z,990.81
2018-12-22T09:35:37.896Z,990.89
2018-12-22T09:36:37.895Z,990.84
2018-12-22T09:37:37.893Z,990.85
2018-12-22T09:38:37.883Z,990.93
2018-12-22T09:39:37.879Z,990.89
2018-12-22T09:40:37.877Z,990.85
2018-12-22T09:41:37.869Z,990.79
2018-12-22T09:42:37.864Z,990.90
2018-12-22T09:43:37.860Z,990.92
2018-12-22T09:44:37.856Z,990.93
2018-12-22T09:45:37.852Z,990.90
2018-12-22T09:46:37.846Z,990.92
2018-12-22T09:47:37.844Z,990.90
2018-12-22T09:48:37.837Z,990.97
2018-12-22T09:49:37.837Z,990.99
2018-12-22T09:50:37.824Z,990.97
2018-12-22T09:51:37.828Z,990.96
2018-12-22T09:52:37.819Z,990.98
2018-12-22T09:53:37.816Z,990.95
2018-12-22T09:54:38.943Z,990.99
2018-12-22T09:55:37.805Z,990.95
2018-12-22T09:56:37.819Z,991.00
2018-12-22T09:57:37.796Z,990.98
2018-12-22T09:58:37.792Z,991.04
2018-12-22T09:59:37.788Z,991.00
2018-12-22T10:00:37.784Z,990.99
2018-12-22T10:01:37.779Z,990.96
2018-12-22T10:02:37.773Z,990.94
2018-12-22T10:03:37.773Z,990.98
2018-12-22T10:04:37.765Z,990.87
2018-12-22T10:05:37.761Z,990.96
2018-12-22T10:06:38.003Z,991.00
2018-12-22T10:07:37.752Z,991.08
2018-12-22T10:08:37.749Z,990.96
2018-12-22T10:09:37.743Z,990.91
2018-12-22T10:10:37.739Z,990.94
2018-12-22T10:11:37.734Z,991.00
2018-12-22T10:12:37.731Z,991.03
2018-12-22T10:13:37.726Z,991.04
2018-12-22T10:14:37.730Z,991.07
2018-12-22T10:15:37.721Z,991.00
2018-12-22T10:16:37.713Z,991.05
2018-12-22T10:17:37.708Z,991.09
2018-12-22T10:18:38.202Z,991.03
2018-12-22T10:19:37.803Z,991.18
2018-12-22T10:20:37.702Z,991.01
2018-12-22T10:21:37.712Z,991.12
2018-12-22T10:22:37.727Z,991.06
2018-12-22T10:23:37.682Z,991.25
2018-12-22T10:24:37.677Z,991.30
2018-12-22T10:25:37.675Z,991.18
2018-12-22T10:26:37.669Z,991.25
2018-12-22T10:27:37.664Z,991.32
2018-12-22T10:28:37.663Z,991.28
2018-12-22T10:29:37.658Z,991.33
2018-12-22T10:30:37.652Z,991.40
2018-12-22T10:31:37.647Z,991.40
2018-12-22T10:32:37.648Z,991.37
2018-12-22T10:33:37.664Z,991.49
2018-12-22T10:34:37.685Z,991.53
2018-12-22T10:35:37.632Z,991.56
2018-12-22T10:36:37.626Z,991.57
2018-12-22T10:37:37.622Z,991.61
2018-12-22T10:38:37.618Z,991.73
2018-12-22T10:39:37.611Z,991.56
2018-12-22T10:40:37.634Z,991.74
2018-12-22T10:41:37.605Z,991.75
2018-12-22T10:42:37.601Z,991.78
2018-12-22T10:43:37.602Z,991.84
2018-12-22T10:44:38.171Z,991.79
2018-12-22T10:45:37.589Z,991.71
2018-12-22T10:46:37.584Z,991.77
2018-12-22T10:47:37.576Z,991.69
2018-12-22T10:48:37.589Z,991.78
2018-12-22T10:49:37.573Z,991.94
2018-12-22T10:50:37.570Z,991.91
2018-12-22T10:51:37.569Z,991.95
2018-12-22T10:52:37.567Z,991.93
2018-12-22T10:53:37.557Z,991.92
2018-12-22T10:54:37.552Z,991.99
2018-12-22T10:55:37.554Z,991.89
2018-12-22T10:56:37.542Z,991.98
2018-12-22T10:57:37.540Z,992.13
2018-12-22T10:58:37.535Z,992.15
2018-12-22T10:59:37.532Z,991.88
2018-12-22T11:00:37.534Z,992.16
2018-12-22T11:01:37.526Z,992.16
2018-12-22T11:02:37.518Z,992.21
2018-12-22T11:03:37.515Z,992.10
2018-12-22T11:04:37.510Z,992.20
2018-12-22T11:05:37.509Z,992.26
2018-12-22T11:06:37.504Z,992.25
2018-12-22T11:07:37.497Z,992.29
2018-12-22T11:08:37.505Z,992.38
2018-12-22T11:09:37.495Z,992.33
2018-12-22T11:10:37.504Z,992.33
2018-12-22T11:11:37.482Z,992.31
2018-12-22T11:12:37.478Z,992.33
2018-12-22T11:13:37.482Z,992.38
2018-12-22T11:14:37.471Z,992.35
2018-12-22T11:15:37.470Z,992.35
2018-12-22T11:16:37.464Z,992.57
2018-12-22T11:17:37.462Z,992.38
2018-12-22T11:18:37.459Z,992.40
2018-12-22T11:19:37.452Z,992.41
2018-12-22T11:20:37.542Z,992.40
2018-12-22T11:21:37.444Z,992.32
2018-12-22T11:22:37.438Z,992.51
2018-12-22T11:23:37.435Z,992.31
2018-12-22T11:24:37.433Z,992.40
2018-12-22T11:25:37.427Z,992.39
2018-12-22T11:26:37.432Z,992.49
2018-12-22T11:27:37.420Z,992.57
2018-12-22T11:28:37.415Z,992.53
2018-12-22T11:29:37.413Z,992.63
2018-12-22T11:30:37.407Z,992.66
2018-12-22T11:31:37.401Z,992.74
2018-12-22T11:32:37.398Z,992.72
2018-12-22T11:33:37.399Z,992.75
2018-12-22T11:34:37.388Z,992.85
2018-12-22T11:35:37.388Z,992.98
2018-12-22T11:36:37.383Z,992.92
2018-12-22T11:37:37.380Z,993.02
2018-12-22T11:38:37.383Z,992.90
2018-12-22T11:39:37.373Z,992.86
2018-12-22T11:40:37.369Z,992.98
2018-12-22T11:41:37.362Z,992.94
2018-12-22T11:42:37.363Z,993.02
2018-12-22T11:43:37.358Z,993.10
2018-12-22T11:44:37.353Z,993.12
2018-12-22T11:45:37.349Z,993.12
2018-12-22T11:46:37.341Z,993.24
2018-12-22T11:47:37.339Z,993.35
2018-12-22T11:48:37.331Z,993.36
2018-12-22T11:49:37.334Z,993.40
2018-12-22T11:50:37.323Z,993.45
2018-12-22T11:51:37.319Z,993.52
2018-12-22T11:52:39.453Z,993.42
2018-12-22T11:53:37.310Z,993.41
2018-12-22T11:54:37.306Z,993.42
2018-12-22T11:55:37.310Z,993.46
2018-12-22T11:56:37.298Z,993.36
2018-12-22T11:57:37.294Z,993.50
2018-12-22T11:58:38.362Z,993.40
2018-12-22T11:59:37.297Z,993.52
2018-12-22T12:00:37.283Z,993.48
2018-12-22T12:01:43.588Z,993.59
2018-12-22T12:02:37.275Z,993.60
2018-12-22T12:03:37.262Z,993.68
2018-12-22T12:04:37.259Z,993.73
2018-12-22T12:05:37.258Z,993.72
2018-12-22T12:06:37.246Z,993.76
2018-12-22T12:07:37.243Z,993.79
2018-12-22T12:08:37.237Z,993.79
2018-12-22T12:09:37.235Z,993.77
2018-12-22T12:10:37.228Z,993.71
2018-12-22T12:11:37.228Z,993.84
2018-12-22T12:12:37.218Z,993.87
2018-12-22T12:13:37.215Z,993.97
2018-12-22T12:14:37.210Z,993.98
2018-12-22T12:15:37.203Z,994.05
2018-12-22T12:16:37.197Z,994.12
2018-12-22T12:17:37.193Z,994.14
2018-12-22T12:18:37.192Z,994.16
2018-12-22T12:19:37.193Z,994.16
2018-12-22T12:20:37.184Z,994.20
2018-12-22T12:21:37.170Z,994.13
2018-12-22T12:22:37.170Z,994.25
2018-12-22T12:23:37.169Z,994.24
2018-12-22T12:24:37.157Z,994.22
2018-12-22T12:25:37.213Z,994.33
2018-12-22T12:26:37.156Z,994.33
2018-12-22T12:27:37.377Z,994.38
2018-12-22T12:28:37.136Z,994.37
2018-12-22T12:29:37.133Z,994.40
2018-12-22T12:30:37.127Z,994.40
2018-12-22T12:31:37.126Z,994.45
2018-12-22T12:32:37.117Z,994.40
2018-12-22T12:33:37.110Z,994.47
2018-12-22T12:34:37.104Z,994.49
2018-12-22T12:35:37.102Z,994.44
2018-12-22T12:36:37.118Z,994.47
2018-12-22T12:37:37.091Z,994.47
2018-12-22T12:38:37.097Z,994.57
2018-12-22T12:39:37.080Z,994.63
2018-12-22T12:40:37.083Z,994.62
2018-12-22T12:41:37.074Z,994.70
2018-12-22T12:42:37.076Z,994.61
2018-12-22T12:43:37.059Z,994.56
2018-12-22T12:44:37.063Z,994.65
2018-12-22T12:45:37.060Z,994.63
2018-12-22T12:46:37.049Z,994.72
2018-12-22T12:47:37.037Z,994.85
2018-12-22T12:48:37.049Z,994.90
2018-12-22T12:49:37.028Z,994.98
2018-12-22T12:50:37.027Z,995.12
2018-12-22T12:51:37.023Z,995.08
2018-12-22T12:52:37.018Z,995.10
2018-12-22T12:53:37.013Z,995.12
2018-12-22T12:54:37.010Z,994.97
2018-12-22T12:55:37.001Z,995.10
2018-12-22T12:56:36.999Z,995.05
2018-12-22T12:57:36.997Z,995.15
2018-12-22T12:58:36.987Z,995.12
2018-12-22T12:59:36.983Z,995.19
2018-12-22T13:00:36.989Z,995.16
2018-12-22T13:01:36.967Z,995.24
2018-12-22T13:02:36.966Z,995.24
2018-12-22T13:03:36.958Z,995.24
2018-12-22T13:04:36.951Z,995.27
2018-12-22T13:05:36.950Z,995.31
2018-12-22T13:06:36.935Z,995.33
2018-12-22T13:07:36.933Z,995.39
2018-12-22T13:08:36.924Z,995.40
2018-12-22T13:09:36.942Z,995.46
2018-12-22T13:10:36.915Z,995.52
2018-12-22T13:11:36.913Z,995.45
2018-12-22T13:12:36.902Z,995.49
2018-12-22T13:13:36.903Z,995.47
2018-12-22T13:14:36.891Z,995.52
2018-12-22T13:15:36.887Z,995.48
2018-12-22T13:16:36.883Z,995.52
2018-12-22T13:17:36.873Z,995.60
2018-12-22T13:18:36.866Z,995.63
2018-12-22T13:19:36.859Z,995.68
2018-12-22T13:20:36.852Z,995.73
2018-12-22T13:21:36.848Z,995.81
2018-12-22T13:22:36.843Z,995.75
2018-12-22T13:23:36.846Z,995.74
2018-12-22T13:24:36.832Z,995.81
2018-12-22T13:25:36.828Z,995.83
2018-12-22T13:26:37.715Z,995.86
2018-12-22T13:27:36.815Z,995.96
2018-12-22T13:28:36.810Z,995.99
2018-12-22T13:29:36.802Z,996.00
2018-12-22T13:30:36.795Z,995.99
2018-12-22T13:31:36.790Z,996.00
2018-12-22T13:32:36.786Z,996.11
2018-12-22T13:33:37.149Z,996.15
2018-12-22T13:34:36.771Z,996.14
2018-12-22T13:35:36.790Z,996.17
2018-12-22T13:36:36.762Z,996.14
2018-12-22T13:37:36.754Z,996.25
2018-12-22T13:38:36.749Z,996.25
2018-12-22T13:39:36.741Z,996.23
2018-12-22T13:40:36.734Z,996.20
2018-12-22T13:41:36.955Z,996.21
2018-12-22T13:42:36.728Z,996.35
2018-12-22T13:43:36.719Z,996.33
2018-12-22T13:44:36.713Z,996.32
2018-12-22T13:45:36.706Z,996.27
2018-12-22T13:46:36.702Z,996.37
2018-12-22T13:47:37.050Z,996.41
2018-12-22T13:48:36.983Z,996.43
2018-12-22T13:49:36.947Z,996.45
2018-12-22T13:50:36.699Z,996.47
2018-12-22T13:51:36.670Z,996.53
2018-12-22T13:52:36.664Z,996.52
2018-12-22T13:53:36.667Z,996.50
2018-12-22T13:54:36.652Z,996.54
2018-12-22T13:55:36.646Z,996.55
2018-12-22T13:56:36.646Z,996.53
2018-12-22T13:57:36.634Z,996.58
2018-12-22T13:58:36.627Z,996.64
2018-12-22T13:59:36.621Z,996.62
2018-12-22T14:00:36.611Z,996.67
2018-12-22T14:01:36.611Z,996.67
2018-12-22T14:02:36.603Z,996.70
2018-12-22T14:03:36.597Z,996.70
2018-12-22T14:04:36.595Z,996.72
2018-12-22T14:05:36.595Z,996.71